sensor_id;sensor_type;location;lat;lon;timestamp;pressure;altitude;pressure_sealevel;temperature;humidity
6853;BME280;3465;42.144;24.722;2022-09-17T00:00:22;98486.47;;;23.19;81.89
6853;BME280;3465;42.144;24.722;2022-09-17T00:02:51;98480.38;;;23.19;82.08
6853;BME280;3465;42.144;24.722;2022-09-17T00:05:22;98471.25;;;23.10;82.04
6853;BME280;3465;42.144;24.722;2022-09-17T00:07:49;98490.88;;;23.19;82.03
6853;BME280;3465;42.144;24.722;2022-09-17T00:10:16;98497.13;;;23.16;82.23
6853;BME280;3465;42.144;24.722;2022-09-17T00:12:41;98470.31;;;23.11;82.13
6853;BME280;3465;42.144;24.722;2022-09-17T00:15:07;98469.03;;;23.03;82.85
6853;BME280;3465;42.144;24.722;2022-09-17T00:17:33;98477.81;;;23.02;83.28
6853;BME280;3465;42.144;24.722;2022-09-17T00:19:58;98457.59;;;22.88;82.95
6853;BME280;3465;42.144;24.722;2022-09-17T00:22:24;98472.22;;;22.92;83.53
6853;BME280;3465;42.144;24.722;2022-09-17T00:24:49;98470.72;;;22.87;83.91
6853;BME280;3465;42.144;24.722;2022-09-17T00:27:14;98477.06;;;22.83;84.08
6853;BME280;3465;42.144;24.722;2022-09-17T00:29:43;98472.84;;;22.80;84.43
6853;BME280;3465;42.144;24.722;2022-09-17T00:32:08;98446.81;;;22.60;84.92
6853;BME280;3465;42.144;24.722;2022-09-17T00:34:34;98471.94;;;22.64;85.91
6853;BME280;3465;42.144;24.722;2022-09-17T00:37:00;98486.31;;;22.55;86.48
6853;BME280;3465;42.144;24.722;2022-09-17T00:39:25;98481.50;;;22.46;87.57
6853;BME280;3465;42.144;24.722;2022-09-17T00:41:50;98481.81;;;22.40;87.60
6853;BME280;3465;42.144;24.722;2022-09-17T00:47:00;98474.19;;;22.19;88.34
6853;BME280;3465;42.144;24.722;2022-09-17T00:49:28;98490.50;;;22.24;88.94
6853;BME280;3465;42.144;24.722;2022-09-17T00:52:00;98483.31;;;22.27;88.72
6853;BME280;3465;42.144;24.722;2022-09-17T00:54:28;98466.09;;;22.23;89.45
6853;BME280;3465;42.144;24.722;2022-09-17T00:56:54;98467.94;;;22.21;89.03
6853;BME280;3465;42.144;24.722;2022-09-17T00:59:21;98468.63;;;22.25;88.95
6853;BME280;3465;42.144;24.722;2022-09-17T01:01:47;98477.28;;;22.27;88.96
6853;BME280;3465;42.144;24.722;2022-09-17T01:04:20;98464.78;;;22.15;89.58
6853;BME280;3465;42.144;24.722;2022-09-17T01:07:08;98487.34;;;22.17;89.87
6853;BME280;3465;42.144;24.722;2022-09-17T01:17:48;98462.75;;;22.03;89.55
6853;BME280;3465;42.144;24.722;2022-09-17T01:23:19;98474.66;;;21.91;90.81
6853;BME280;3465;42.144;24.722;2022-09-17T01:31:13;98474.38;;;21.79;90.87
6853;BME280;3465;42.144;24.722;2022-09-17T01:39:45;98478.31;;;21.69;91.65
6853;BME280;3465;42.144;24.722;2022-09-17T01:50:24;98448.09;;;21.45;92.85
6853;BME280;3465;42.144;24.722;2022-09-17T01:52:52;98454.84;;;21.49;92.90
6853;BME280;3465;42.144;24.722;2022-09-17T01:55:20;98483.41;;;21.53;94.22
6853;BME280;3465;42.144;24.722;2022-09-17T01:58:09;98469.00;;;21.45;94.88
6853;BME280;3465;42.144;24.722;2022-09-17T02:00:39;98451.00;;;21.39;95.42
6853;BME280;3465;42.144;24.722;2022-09-17T02:03:16;98459.88;;;21.35;95.24
6853;BME280;3465;42.144;24.722;2022-09-17T02:05:57;98449.84;;;21.25;96.04
6853;BME280;3465;42.144;24.722;2022-09-17T02:08:35;98449.72;;;21.08;97.28
6853;BME280;3465;42.144;24.722;2022-09-17T02:11:09;98417.50;;;20.89;97.72
6853;BME280;3465;42.144;24.722;2022-09-17T02:16:08;98430.31;;;20.75;98.71
6853;BME280;3465;42.144;24.722;2022-09-17T02:18:42;98427.97;;;20.69;98.69
6853;BME280;3465;42.144;24.722;2022-09-17T02:21:20;98444.00;;;20.80;98.85
6853;BME280;3465;42.144;24.722;2022-09-17T02:23:59;98447.47;;;20.81;99.13
6853;BME280;3465;42.144;24.722;2022-09-17T02:26:29;98431.94;;;20.78;98.74
6853;BME280;3465;42.144;24.722;2022-09-17T02:28:59;98426.91;;;20.73;99.02
6853;BME280;3465;42.144;24.722;2022-09-17T02:31:28;98436.69;;;20.68;100.00
6853;BME280;3465;42.144;24.722;2022-09-17T02:33:57;98438.56;;;20.66;100.00
6853;BME280;3465;42.144;24.722;2022-09-17T02:36:26;98439.66;;;20.61;100.00
6853;BME280;3465;42.144;24.722;2022-09-17T02:38:59;98438.72;;;20.62;100.00
6853;BME280;3465;42.144;24.722;2022-09-17T02:44:52;98408.19;;;20.64;100.00
6853;BME280;3465;42.144;24.722;2022-09-17T02:55:31;98414.22;;;20.66;100.00
6853;BME280;3465;42.144;24.722;2022-09-17T03:00:31;98403.47;;;20.53;100.00
6853;BME280;3465;42.144;24.722;2022-09-17T03:03:08;98374.53;;;20.39;100.00
6853;BME280;3465;42.144;24.722;2022-09-17T03:05:35;98393.22;;;20.49;100.00
6853;BME280;3465;42.144;24.722;2022-09-17T03:08:02;98389.91;;;20.45;100.00
6853;BME280;3465;42.144;24.722;2022-09-17T03:10:27;98376.28;;;20.39;100.00
6853;BME280;3465;42.144;24.722;2022-09-17T03:12:54;98380.75;;;20.35;100.00
6853;BME280;3465;42.144;24.722;2022-09-17T03:15:20;98353.81;;;20.35;100.00
6853;BME280;3465;42.144;24.722;2022-09-17T03:17:45;98372.75;;;20.40;100.00
6853;BME280;3465;42.144;24.722;2022-09-17T03:20:11;98375.22;;;20.43;100.00
6853;BME280;3465;42.144;24.722;2022-09-17T03:22:36;98297.09;;;20.00;100.00
6853;BME280;3465;42.144;24.722;2022-09-17T03:25:02;98357.16;;;20.38;100.00
6853;BME280;3465;42.144;24.722;2022-09-17T03:27:27;98350.84;;;20.44;100.00
6853;BME280;3465;42.144;24.722;2022-09-17T03:29:52;98369.94;;;20.44;100.00
6853;BME280;3465;42.144;24.722;2022-09-17T03:32:18;98380.84;;;20.34;100.00
6853;BME280;3465;42.144;24.722;2022-09-17T03:34:43;98373.34;;;20.26;100.00
6853;BME280;3465;42.144;24.722;2022-09-17T03:37:11;98378.16;;;20.35;100.00
6853;BME280;3465;42.144;24.722;2022-09-17T03:39:36;98362.72;;;20.31;100.00
6853;BME280;3465;42.144;24.722;2022-09-17T03:42:02;98352.00;;;20.37;100.00
6853;BME280;3465;42.144;24.722;2022-09-17T03:44:27;98344.19;;;20.37;100.00
6853;BME280;3465;42.144;24.722;2022-09-17T03:46:53;98346.72;;;20.38;100.00
6853;BME280;3465;42.144;24.722;2022-09-17T03:49:18;98318.00;;;20.20;100.00
6853;BME280;3465;42.144;24.722;2022-09-17T03:51:44;98326.03;;;20.14;100.00
6853;BME280;3465;42.144;24.722;2022-09-17T03:54:09;98337.44;;;20.11;100.00
6853;BME280;3465;42.144;24.722;2022-09-17T03:56:35;98329.09;;;20.03;100.00
6853;BME280;3465;42.144;24.722;2022-09-17T03:59:00;98358.56;;;20.05;100.00
6853;BME280;3465;42.144;24.722;2022-09-17T04:01:27;98355.56;;;19.94;100.00
6853;BME280;3465;42.144;24.722;2022-09-17T04:03:52;98276.50;;;19.32;100.00
6853;BME280;3465;42.144;24.722;2022-09-17T04:06:18;98272.31;;;19.28;100.00
6853;BME280;3465;42.144;24.722;2022-09-17T04:08:44;98335.19;;;19.62;100.00
6853;BME280;3465;42.144;24.722;2022-09-17T04:11:09;98330.94;;;19.59;100.00
6853;BME280;3465;42.144;24.722;2022-09-17T04:13:35;98352.75;;;19.57;100.00
6853;BME280;3465;42.144;24.722;2022-09-17T04:16:01;98352.09;;;19.52;100.00
6853;BME280;3465;42.144;24.722;2022-09-17T04:18:26;98347.41;;;19.38;100.00
6853;BME280;3465;42.144;24.722;2022-09-17T04:20:54;98352.50;;;19.41;100.00
6853;BME280;3465;42.144;24.722;2022-09-17T04:23:20;98340.19;;;19.45;100.00
6853;BME280;3465;42.144;24.722;2022-09-17T04:25:45;98342.53;;;19.52;100.00
6853;BME280;3465;42.144;24.722;2022-09-17T04:28:11;98339.59;;;19.60;100.00
6853;BME280;3465;42.144;24.722;2022-09-17T04:30:37;98334.41;;;19.80;100.00
6853;BME280;3465;42.144;24.722;2022-09-17T04:33:03;98320.34;;;19.84;100.00
6853;BME280;3465;42.144;24.722;2022-09-17T04:35:28;98311.88;;;19.79;100.00
6853;BME280;3465;42.144;24.722;2022-09-17T04:37:57;98307.34;;;19.84;100.00
6853;BME280;3465;42.144;24.722;2022-09-17T04:40:24;98300.94;;;19.71;100.00
6853;BME280;3465;42.144;24.722;2022-09-17T04:42:57;98310.50;;;19.70;100.00
6853;BME280;3465;42.144;24.722;2022-09-17T04:45:28;98341.06;;;19.87;100.00
6853;BME280;3465;42.144;24.722;2022-09-17T04:47:54;98338.88;;;19.98;100.00
6853;BME280;3465;42.144;24.722;2022-09-17T04:50:21;98340.19;;;20.28;100.00
6853;BME280;3465;42.144;24.722;2022-09-17T04:52:47;98358.47;;;20.87;100.00
6853;BME280;3465;42.144;24.722;2022-09-17T04:55:13;98355.03;;;21.23;100.00
6853;BME280;3465;42.144;24.722;2022-09-17T04:57:45;98356.09;;;21.38;98.43
6853;BME280;3465;42.144;24.722;2022-09-17T05:00:11;98356.41;;;21.68;96.54
6853;BME280;3465;42.144;24.722;2022-09-17T05:02:37;98361.34;;;22.42;92.70
6853;BME280;3465;42.144;24.722;2022-09-17T05:05:03;98371.25;;;23.50;87.29
6853;BME280;3465;42.144;24.722;2022-09-17T05:07:28;98377.09;;;24.60;81.90
6853;BME280;3465;42.144;24.722;2022-09-17T05:09:53;98377.28;;;25.55;74.29
6853;BME280;3465;42.144;24.722;2022-09-17T05:12:19;98357.44;;;26.29;69.61
6853;BME280;3465;42.144;24.722;2022-09-17T05:14:44;98376.66;;;27.19;65.13
6853;BME280;3465;42.144;24.722;2022-09-17T05:17:10;98385.09;;;27.73;62.28
6853;BME280;3465;42.144;24.722;2022-09-17T05:19:35;98400.75;;;28.34;60.19
6853;BME280;3465;42.144;24.722;2022-09-17T05:22:00;98400.16;;;28.76;57.54
6853;BME280;3465;42.144;24.722;2022-09-17T05:24:26;98392.50;;;29.06;56.34
6853;BME280;3465;42.144;24.722;2022-09-17T05:26:51;98411.78;;;29.42;54.79
6853;BME280;3465;42.144;24.722;2022-09-17T05:29:17;98426.66;;;29.76;53.57
6853;BME280;3465;42.144;24.722;2022-09-17T05:31:42;98430.09;;;29.98;52.18
6853;BME280;3465;42.144;24.722;2022-09-17T05:34:10;98425.81;;;30.29;51.13
6853;BME280;3465;42.144;24.722;2022-09-17T05:36:36;98423.47;;;30.67;50.17
6853;BME280;3465;42.144;24.722;2022-09-17T05:39:01;98430.19;;;30.92;48.44
6853;BME280;3465;42.144;24.722;2022-09-17T05:41:27;98448.13;;;30.99;48.37
6853;BME280;3465;42.144;24.722;2022-09-17T05:43:53;98444.63;;;30.99;48.45
6853;BME280;3465;42.144;24.722;2022-09-17T05:46:19;98442.97;;;30.45;49.76
6853;BME280;3465;42.144;24.722;2022-09-17T05:48:44;98451.41;;;29.97;51.27
6853;BME280;3465;42.144;24.722;2022-09-17T05:51:10;98450.47;;;29.09;53.78
6853;BME280;3465;42.144;24.722;2022-09-17T05:53:35;98444.56;;;28.02;57.08
6853;BME280;3465;42.144;24.722;2022-09-17T05:56:02;98380.25;;;26.81;60.66
6853;BME280;3465;42.144;24.722;2022-09-17T05:58:27;98423.31;;;26.54;63.46
6853;BME280;3465;42.144;24.722;2022-09-17T06:00:53;98451.44;;;27.06;63.04
6853;BME280;3465;42.144;24.722;2022-09-17T06:03:19;98454.47;;;28.22;59.25
6853;BME280;3465;42.144;24.722;2022-09-17T06:05:57;98460.22;;;29.64;54.23
6853;BME280;3465;42.144;24.722;2022-09-17T06:08:25;98472.16;;;30.34;51.49
6853;BME280;3465;42.144;24.722;2022-09-17T06:10:51;98483.59;;;30.66;50.48
6853;BME280;3465;42.144;24.722;2022-09-17T06:13:17;98482.09;;;31.05;49.30
6853;BME280;3465;42.144;24.722;2022-09-17T06:15:48;98488.59;;;31.72;47.82
6853;BME280;3465;42.144;24.722;2022-09-17T06:18:14;98489.88;;;32.37;45.50
6853;BME280;3465;42.144;24.722;2022-09-17T06:20:39;98490.66;;;33.32;43.01
6853;BME280;3465;42.144;24.722;2022-09-17T06:23:05;98490.91;;;33.58;41.58
6853;BME280;3465;42.144;24.722;2022-09-17T06:25:30;98500.56;;;32.75;42.63
6853;BME280;3465;42.144;24.722;2022-09-17T06:27:56;98502.53;;;31.35;46.09
6853;BME280;3465;42.144;24.722;2022-09-17T06:30:21;98508.00;;;29.96;49.86
6853;BME280;3465;42.144;24.722;2022-09-17T06:32:47;98505.72;;;28.90;52.94
6853;BME280;3465;42.144;24.722;2022-09-17T06:35:12;98499.31;;;28.11;56.81
6853;BME280;3465;42.144;24.722;2022-09-17T06:37:38;98496.47;;;27.15;61.03
6853;BME280;3465;42.144;24.722;2022-09-17T06:40:05;98505.72;;;26.56;63.95
6853;BME280;3465;42.144;24.722;2022-09-17T06:42:31;98486.31;;;26.18;64.83
6853;BME280;3465;42.144;24.722;2022-09-17T06:44:56;98505.03;;;26.00;66.52
6853;BME280;3465;42.144;24.722;2022-09-17T06:47:25;98503.94;;;25.90;67.08
6853;BME280;3465;42.144;24.722;2022-09-17T06:49:50;98496.88;;;25.90;67.42
6853;BME280;3465;42.144;24.722;2022-09-17T06:52:16;98484.06;;;25.98;67.16
6853;BME280;3465;42.144;24.722;2022-09-17T06:54:42;98474.69;;;26.08;67.10
6853;BME280;3465;42.144;24.722;2022-09-17T06:57:07;98457.19;;;26.34;65.24
6853;BME280;3465;42.144;24.722;2022-09-17T06:59:33;98482.84;;;27.21;63.64
6853;BME280;3465;42.144;24.722;2022-09-17T07:01:58;98480.41;;;27.56;61.85
6853;BME280;3465;42.144;24.722;2022-09-17T07:04:23;98492.63;;;27.82;60.98
6853;BME280;3465;42.144;24.722;2022-09-17T07:06:49;98495.13;;;27.96;59.65
6853;BME280;3465;42.144;24.722;2022-09-17T07:09:14;98488.41;;;27.79;59.56
6853;BME280;3465;42.144;24.722;2022-09-17T07:11:40;98475.81;;;27.47;61.10
6853;BME280;3465;42.144;24.722;2022-09-17T07:14:05;98456.81;;;27.17;61.74
6853;BME280;3465;42.144;24.722;2022-09-17T07:16:32;98447.84;;;26.82;63.44
6853;BME280;3465;42.144;24.722;2022-09-17T07:19:02;98440.19;;;26.52;63.85
6853;BME280;3465;42.144;24.722;2022-09-17T07:21:28;98448.84;;;26.27;65.06
6853;BME280;3465;42.144;24.722;2022-09-17T07:23:53;98452.09;;;26.18;65.89
6853;BME280;3465;42.144;24.722;2022-09-17T07:26:18;98462.22;;;26.24;66.25
6853;BME280;3465;42.144;24.722;2022-09-17T07:28:44;98475.97;;;26.42;65.39
6853;BME280;3465;42.144;24.722;2022-09-17T07:31:10;98461.56;;;26.47;65.56
6853;BME280;3465;42.144;24.722;2022-09-17T07:33:36;98443.88;;;26.62;65.89
6853;BME280;3465;42.144;24.722;2022-09-17T07:36:04;98416.84;;;26.85;64.85
6853;BME280;3465;42.144;24.722;2022-09-17T07:38:30;98425.47;;;27.86;62.98
6853;BME280;3465;42.144;24.722;2022-09-17T07:43:26;98451.75;;;31.28;49.94
6853;BME280;3465;42.144;24.722;2022-09-17T07:45:52;98464.81;;;32.30;46.66
6853;BME280;3465;42.144;24.722;2022-09-17T07:48:19;98450.22;;;33.66;43.17
6853;BME280;3465;42.144;24.722;2022-09-17T07:50:45;98451.28;;;35.31;38.73
6853;BME280;3465;42.144;24.722;2022-09-17T07:53:10;98465.19;;;36.83;36.36
6853;BME280;3465;42.144;24.722;2022-09-17T07:55:36;98480.09;;;38.11;33.32
6853;BME280;3465;42.144;24.722;2022-09-17T07:58:01;98499.03;;;39.16;31.32
6853;BME280;3465;42.144;24.722;2022-09-17T08:00:27;98493.44;;;39.84;30.04
6853;BME280;3465;42.144;24.722;2022-09-17T08:02:56;98514.06;;;40.42;29.52
6853;BME280;3465;42.144;24.722;2022-09-17T08:05:23;98498.78;;;40.13;29.61
6853;BME280;3465;42.144;24.722;2022-09-17T08:07:53;98514.88;;;39.77;29.96
6853;BME280;3465;42.144;24.722;2022-09-17T08:10:20;98503.34;;;39.83;29.73
6853;BME280;3465;42.144;24.722;2022-09-17T08:12:54;98484.91;;;40.10;28.96
6853;BME280;3465;42.144;24.722;2022-09-17T08:15:20;98480.59;;;40.15;28.68
6853;BME280;3465;42.144;24.722;2022-09-17T08:17:46;98504.72;;;40.59;29.11
6853;BME280;3465;42.144;24.722;2022-09-17T08:20:12;98517.81;;;41.25;27.44
6853;BME280;3465;42.144;24.722;2022-09-17T08:22:39;98516.94;;;41.73;26.68
6853;BME280;3465;42.144;24.722;2022-09-17T08:25:06;98514.44;;;42.19;26.18
6853;BME280;3465;42.144;24.722;2022-09-17T08:27:35;98507.94;;;42.47;26.68
6853;BME280;3465;42.144;24.722;2022-09-17T08:30:04;98502.19;;;42.10;26.28
6853;BME280;3465;42.144;24.722;2022-09-17T08:32:29;98491.34;;;41.69;26.67
6853;BME280;3465;42.144;24.722;2022-09-17T08:34:55;98495.63;;;40.24;28.60
6853;BME280;3465;42.144;24.722;2022-09-17T08:37:21;98503.63;;;40.32;28.69
6853;BME280;3465;42.144;24.722;2022-09-17T08:39:46;98491.63;;;40.56;28.61
6853;BME280;3465;42.144;24.722;2022-09-17T08:44:45;98472.53;;;39.13;29.73
6853;BME280;3465;42.144;24.722;2022-09-17T08:47:32;98471.88;;;38.43;31.06
6853;BME280;3465;42.144;24.722;2022-09-17T08:50:02;98467.41;;;37.59;31.75
6853;BME280;3465;42.144;24.722;2022-09-17T08:55:45;98463.28;;;37.08;32.79
6853;BME280;3465;42.144;24.722;2022-09-17T09:06:27;98430.91;;;39.24;29.54
6853;BME280;3465;42.144;24.722;2022-09-17T09:09:10;98419.03;;;39.76;29.33
6853;BME280;3465;42.144;24.722;2022-09-17T09:11:38;98421.50;;;40.85;28.53
6853;BME280;3465;42.144;24.722;2022-09-17T09:14:28;98438.50;;;40.43;28.03
6853;BME280;3465;42.144;24.722;2022-09-17T09:16:56;98408.09;;;40.49;28.15
6853;BME280;3465;42.144;24.722;2022-09-17T09:22:00;98413.75;;;41.37;26.86
6853;BME280;3465;42.144;24.722;2022-09-17T09:24:35;98412.34;;;41.82;26.00
6853;BME280;3465;42.144;24.722;2022-09-17T09:27:26;98391.53;;;40.52;27.59
6853;BME280;3465;42.144;24.722;2022-09-17T09:35:17;98392.44;;;41.83;26.45
6853;BME280;3465;42.144;24.722;2022-09-17T09:40:45;98387.03;;;41.42;25.62
6853;BME280;3465;42.144;24.722;2022-09-17T09:43:38;98386.75;;;41.31;25.05
6853;BME280;3465;42.144;24.722;2022-09-17T09:52:07;98371.16;;;40.01;26.80
6853;BME280;3465;42.144;24.722;2022-09-17T09:54:57;98368.25;;;40.03;27.38
6853;BME280;3465;42.144;24.722;2022-09-17T09:57:44;98359.13;;;39.47;27.87
6853;BME280;3465;42.144;24.722;2022-09-17T10:00:34;98350.47;;;38.56;28.93
6853;BME280;3465;42.144;24.722;2022-09-17T10:03:12;98340.75;;;38.18;29.62
6853;BME280;3465;42.144;24.722;2022-09-17T10:06:12;98326.00;;;37.30;30.58
6853;BME280;3465;42.144;24.722;2022-09-17T10:08:39;98332.59;;;37.03;30.95
6853;BME280;3465;42.144;24.722;2022-09-17T10:11:08;98314.63;;;36.09;32.65
6853;BME280;3465;42.144;24.722;2022-09-17T10:13:41;98320.09;;;35.34;33.73
6853;BME280;3465;42.144;24.722;2022-09-17T10:16:26;98309.50;;;34.57;35.28
6853;BME280;3465;42.144;24.722;2022-09-17T10:21:33;98349.09;;;33.47;36.73
6853;BME280;3465;42.144;24.722;2022-09-17T10:24:00;98342.25;;;33.07;38.15
6853;BME280;3465;42.144;24.722;2022-09-17T10:26:30;98316.88;;;32.67;50.37
6853;BME280;3465;42.144;24.722;2022-09-17T10:31:26;98278.91;;;31.12;69.41
6853;BME280;3465;42.144;24.722;2022-09-17T10:36:49;98316.44;;;30.98;70.53
6853;BME280;3465;42.144;24.722;2022-09-17T10:44:38;98340.03;;;29.67;75.56
6853;BME280;3465;42.144;24.722;2022-09-17T10:49:48;98320.16;;;28.74;86.96
6853;BME280;3465;42.144;24.722;2022-09-17T10:52:25;98329.88;;;28.74;86.71
6853;BME280;3465;42.144;24.722;2022-09-17T11:06:49;98364.38;;;27.79;90.14
6853;BME280;3465;42.144;24.722;2022-09-17T11:23:24;98627.53;;;26.74;94.09
6853;BME280;3465;42.144;24.722;2022-09-17T11:34:19;98591.66;;;24.27;100.00
6853;BME280;3465;42.144;24.722;2022-09-17T11:37:19;98582.13;;;24.10;100.00
6853;BME280;3465;42.144;24.722;2022-09-17T11:39:54;98555.53;;;24.01;100.00
6853;BME280;3465;42.144;24.722;2022-09-17T11:42:46;98538.56;;;23.90;100.00
6853;BME280;3465;42.144;24.722;2022-09-17T11:45:18;98535.53;;;24.14;100.00
6853;BME280;3465;42.144;24.722;2022-09-17T11:47:53;98530.13;;;24.32;100.00
6853;BME280;3465;42.144;24.722;2022-09-17T11:50:45;98524.84;;;24.48;100.00
6853;BME280;3465;42.144;24.722;2022-09-17T11:55:58;98485.63;;;25.18;100.00
6853;BME280;3465;42.144;24.722;2022-09-17T11:58:37;98472.03;;;25.54;100.00
6853;BME280;3465;42.144;24.722;2022-09-17T12:01:33;98431.91;;;25.78;97.87
6853;BME280;3465;42.144;24.722;2022-09-17T12:04:21;98408.00;;;26.34;95.13
6853;BME280;3465;42.144;24.722;2022-09-17T12:06:56;98364.22;;;26.58;93.58
6853;BME280;3465;42.144;24.722;2022-09-17T12:09:27;98342.94;;;26.61;93.35
6853;BME280;3465;42.144;24.722;2022-09-17T12:12:23;98316.81;;;26.71;92.99
6853;BME280;3465;42.144;24.722;2022-09-17T12:17:20;98310.41;;;26.75;89.47
6853;BME280;3465;42.144;24.722;2022-09-17T12:19:54;98313.16;;;26.74;90.60
6853;BME280;3465;42.144;24.722;2022-09-17T12:22:40;98337.47;;;26.90;89.94
6853;BME280;3465;42.144;24.722;2022-09-17T12:25:11;98318.19;;;26.89;91.81
6853;BME280;3465;42.144;24.722;2022-09-17T12:27:42;98318.44;;;27.10;93.30
6853;BME280;3465;42.144;24.722;2022-09-17T12:30:15;98313.44;;;26.94;92.06
6853;BME280;3465;42.144;24.722;2022-09-17T12:46:11;98318.47;;;29.17;78.42
6853;BME280;3465;42.144;24.722;2022-09-17T12:49:17;98298.47;;;29.47;74.75
6853;BME280;3465;42.144;24.722;2022-09-17T12:51:54;98272.97;;;29.34;74.91
6853;BME280;3465;42.144;24.722;2022-09-17T13:00:20;98253.91;;;29.20;78.80
6853;BME280;3465;42.144;24.722;2022-09-17T13:16:45;98217.75;;;28.10;80.19
6853;BME280;3465;42.144;24.722;2022-09-17T13:22:28;98226.09;;;27.93;79.01
6853;BME280;3465;42.144;24.722;2022-09-17T13:25:06;98234.88;;;27.93;75.94
6853;BME280;3465;42.144;24.722;2022-09-17T13:27:36;98219.53;;;27.75;77.30
6853;BME280;3465;42.144;24.722;2022-09-17T13:30:05;98213.81;;;27.46;80.30
6853;BME280;3465;42.144;24.722;2022-09-17T13:40:22;98223.25;;;27.38;80.81
6853;BME280;3465;42.144;24.722;2022-09-17T13:42:51;98225.38;;;27.33;81.46
6853;BME280;3465;42.144;24.722;2022-09-17T13:45:20;98226.72;;;27.38;79.91
6853;BME280;3465;42.144;24.722;2022-09-17T13:47:59;98218.19;;;27.35;79.44
6853;BME280;3465;42.144;24.722;2022-09-17T13:50:30;98204.81;;;27.25;81.78
6853;BME280;3465;42.144;24.722;2022-09-17T13:52:58;98208.28;;;27.02;83.02
6853;BME280;3465;42.144;24.722;2022-09-17T13:55:36;98226.97;;;26.99;83.86
6853;BME280;3465;42.144;24.722;2022-09-17T13:58:07;98195.59;;;26.84;83.22
6853;BME280;3465;42.144;24.722;2022-09-17T14:00:58;98211.91;;;26.89;80.50
6853;BME280;3465;42.144;24.722;2022-09-17T14:08:49;98185.03;;;26.47;82.21
6853;BME280;3465;42.144;24.722;2022-09-17T14:21:59;98178.44;;;26.04;86.11
6853;BME280;3465;42.144;24.722;2022-09-17T14:24:31;98169.25;;;25.97;84.56
6853;BME280;3465;42.144;24.722;2022-09-17T14:32:16;98180.72;;;25.96;87.54
6853;BME280;3465;42.144;24.722;2022-09-17T14:34:46;98164.31;;;25.80;87.63
6853;BME280;3465;42.144;24.722;2022-09-17T14:37:14;98185.25;;;25.94;87.69
6853;BME280;3465;42.144;24.722;2022-09-17T14:39:41;98170.81;;;25.87;88.25
6853;BME280;3465;42.144;24.722;2022-09-17T14:42:23;98184.72;;;25.89;90.34
6853;BME280;3465;42.144;24.722;2022-09-17T14:45:00;98142.84;;;25.74;91.11
6853;BME280;3465;42.144;24.722;2022-09-17T14:47:26;98127.88;;;25.74;90.91
6853;BME280;3465;42.144;24.722;2022-09-17T14:49:52;98161.56;;;25.94;88.63
6853;BME280;3465;42.144;24.722;2022-09-17T14:52:27;98151.78;;;25.96;89.73
6853;BME280;3465;42.144;24.722;2022-09-17T14:55:17;98136.59;;;26.00;91.73
6853;BME280;3465;42.144;24.722;2022-09-17T14:57:45;98100.19;;;25.94;91.29
6853;BME280;3465;42.144;24.722;2022-09-17T15:00:20;98111.16;;;26.00;88.24
6853;BME280;3465;42.144;24.722;2022-09-17T15:02:50;98124.97;;;26.04;89.03
6853;BME280;3465;42.144;24.722;2022-09-17T15:05:30;98134.84;;;26.00;88.68
6853;BME280;3465;42.144;24.722;2022-09-17T15:08:05;98135.69;;;25.88;89.29
6853;BME280;3465;42.144;24.722;2022-09-17T15:10:33;98134.41;;;25.81;90.85
6853;BME280;3465;42.144;24.722;2022-09-17T15:13:00;98140.09;;;25.75;91.58
6853;BME280;3465;42.144;24.722;2022-09-17T15:15:26;98130.00;;;25.69;92.02
6853;BME280;3465;42.144;24.722;2022-09-17T15:17:52;98135.97;;;25.71;90.97
6853;BME280;3465;42.144;24.722;2022-09-17T15:20:24;98135.88;;;25.48;93.60
6853;BME280;3465;42.144;24.722;2022-09-17T15:23:00;98137.06;;;25.29;92.41
6853;BME280;3465;42.144;24.722;2022-09-17T15:25:32;98120.31;;;25.18;92.97
6853;BME280;3465;42.144;24.722;2022-09-17T15:28:04;98102.31;;;25.12;93.55
6853;BME280;3465;42.144;24.722;2022-09-17T15:30:34;98100.34;;;25.15;93.52
6853;BME280;3465;42.144;24.722;2022-09-17T15:33:00;98083.81;;;25.01;96.64
6853;BME280;3465;42.144;24.722;2022-09-17T15:38:24;98164.41;;;25.27;95.16
6853;BME280;3465;42.144;24.722;2022-09-17T15:40:50;98184.22;;;25.18;94.82
6853;BME280;3465;42.144;24.722;2022-09-17T15:43:37;98239.88;;;25.25;94.35
6853;BME280;3465;42.144;24.722;2022-09-17T15:48:51;98242.41;;;25.00;99.48
6853;BME280;3465;42.144;24.722;2022-09-17T15:51:28;98257.13;;;25.02;99.91
6853;BME280;3465;42.144;24.722;2022-09-17T15:53:59;98285.09;;;24.89;100.00
6853;BME280;3465;42.144;24.722;2022-09-17T15:56:28;98305.47;;;24.72;100.00
6853;BME280;3465;42.144;24.722;2022-09-17T15:59:28;98313.66;;;24.24;100.00
6853;BME280;3465;42.144;24.722;2022-09-17T16:01:56;98346.88;;;23.79;100.00
6853;BME280;3465;42.144;24.722;2022-09-17T16:04:32;98367.88;;;23.48;100.00
6853;BME280;3465;42.144;24.722;2022-09-17T16:06:59;98365.63;;;23.10;100.00
6853;BME280;3465;42.144;24.722;2022-09-17T16:09:44;98397.84;;;22.79;100.00
6853;BME280;3465;42.144;24.722;2022-09-17T16:12:13;98412.09;;;22.56;100.00
6853;BME280;3465;42.144;24.722;2022-09-17T16:14:47;98398.00;;;22.42;100.00
6853;BME280;3465;42.144;24.722;2022-09-17T16:17:26;98362.25;;;22.25;100.00
6853;BME280;3465;42.144;24.722;2022-09-17T16:19:58;98304.00;;;22.05;100.00
6853;BME280;3465;42.144;24.722;2022-09-17T16:22:24;98264.75;;;22.05;100.00
6853;BME280;3465;42.144;24.722;2022-09-17T16:24:51;98248.41;;;22.01;100.00
6853;BME280;3465;42.144;24.722;2022-09-17T16:27:22;98234.16;;;22.07;100.00
6853;BME280;3465;42.144;24.722;2022-09-17T16:29:50;98212.47;;;22.05;100.00
6853;BME280;3465;42.144;24.722;2022-09-17T16:32:17;98214.09;;;21.73;100.00
6853;BME280;3465;42.144;24.722;2022-09-17T16:34:42;98211.41;;;21.75;100.00
6853;BME280;3465;42.144;24.722;2022-09-17T16:37:09;98171.66;;;21.68;100.00
6853;BME280;3465;42.144;24.722;2022-09-17T16:39:35;98153.97;;;21.73;100.00
6853;BME280;3465;42.144;24.722;2022-09-17T16:42:03;98156.50;;;21.75;100.00
6853;BME280;3465;42.144;24.722;2022-09-17T16:44:29;98153.03;;;21.76;100.00
6853;BME280;3465;42.144;24.722;2022-09-17T16:46:54;98148.63;;;21.76;100.00
6853;BME280;3465;42.144;24.722;2022-09-17T16:49:19;98151.59;;;21.86;100.00
6853;BME280;3465;42.144;24.722;2022-09-17T16:51:45;98166.38;;;21.87;100.00